Mengshan, China
Current Conditions -  °F | °C
As of 6:00 AM on Thursday 23 Oct 2014 (Local Time) from ZGKL Reporting Station
Haze Haze  
Wind Chill: 55°   Ceiling: Unl
Heat Index: 55°   Visibility: 1.2mi
Dew Point: 55°   Wind: 2mph
Humidity: 100%   Direction: NA
Pressure: 30.12"   Gusts: NA
Location:  24.2°N, 110.52°E
Report Text: ZGKL 222200Z VRB01MPS 2000 BR NSC 13/13 Q1020 BECMG FM23001400
Loading
Personal Weather Stations






























Interactive Weather Map
Tropical Storm Tracking
New forecast layout! Learn more

10-Day Weather Forecast

Advertisements
Track Severe Weather on mobile